Portada
METAR-TAF:

METAR-TAF

Aeroports :

Le Mans, França

latitud: 47-56N, longitud: 000-12E, altitud: 59 m

Observació

L'informe es va fer fa 24 minuts, a les 11:30 UTC
Vent 6 kt del Est, variant entre Nord/Nord-Est i Sud-Est
Temperatura 24°C
Humitat 34%
Pressió 1022 hPa
Visibilitat: 2700 m

METAR: LFRM 091130Z AUTO 08006KT 030V130 7000 2700 NSC 24/07 Q1022

Hora: 13:54 (11:54 UTC)


TAF: manca

Observacions i pronòstics meteorològics de més de 4000 aeroports (METAR i TAF).

Les estacions disponibles són els punts grocs i vermells al mapa.

Posi el ratolí al punt desitjat per veure el nom de l'estació.

Feu clic per veure les observacions i els pronòstics meteorològics.

Per canviar el mapa: feu clic els botons verds amb una creu de color negre per apropar; al botó verd amb un guió per allunyar la imatge; o en les fletxes verdes per a mapes adjacents.


METAR-TAF: